createdAt,value
2023-01-28T00:05:01.694Z,2.70
2023-01-28T00:10:05.129Z,2.70
2023-01-28T00:15:08.949Z,2.70
2023-01-28T00:20:12.589Z,2.70
2023-01-28T00:25:16.933Z,2.70
2023-01-28T00:30:20.823Z,2.80
2023-01-28T00:35:23.566Z,2.80
2023-01-28T00:40:26.589Z,2.80
2023-01-28T00:45:29.898Z,2.80
2023-01-28T00:50:32.856Z,2.70
2023-01-28T00:55:35.963Z,2.70
2023-01-28T01:00:38.951Z,2.70
2023-01-28T01:05:41.826Z,2.70
2023-01-28T01:10:45.023Z,2.60
2023-01-28T01:15:47.885Z,2.60
2023-01-28T01:20:52.235Z,2.60
2023-01-28T01:25:55.733Z,2.50
2023-01-28T01:31:20.238Z,2.50
2023-01-28T01:36:26.184Z,2.50
2023-01-28T01:41:32.187Z,2.50
2023-01-28T01:46:51.126Z,2.50
2023-01-28T01:52:14.526Z,2.60
2023-01-28T01:57:26.831Z,2.60
2023-01-28T02:02:30.709Z,2.60
2023-01-28T02:07:34.520Z,2.60
2023-01-28T02:12:46.221Z,2.60
2023-01-28T02:17:51.106Z,2.60
2023-01-28T02:23:21.568Z,2.60
2023-01-28T02:28:30.127Z,2.60
2023-01-28T02:33:58.880Z,2.60
2023-01-28T02:39:13.500Z,2.60
2023-01-28T02:44:16.478Z,2.50
2023-01-28T02:49:45.409Z,2.50
2023-01-28T02:55:08.593Z,2.40
2023-01-28T03:00:27.842Z,2.40
2023-01-28T03:05:41.166Z,2.30
2023-01-28T03:10:43.998Z,2.30
2023-01-28T03:16:07.289Z,2.30
2023-01-28T03:21:39.889Z,2.40
2023-01-28T03:27:09.602Z,2.30
2023-01-28T03:32:31.974Z,2.30
2023-01-28T03:37:35.215Z,2.40
2023-01-28T03:42:38.166Z,2.40
2023-01-28T03:47:41.386Z,2.40
2023-01-28T03:52:44.456Z,2.40
2023-01-28T03:57:47.496Z,2.40
2023-01-28T04:02:51.031Z,2.40
2023-01-28T04:07:57.408Z,2.40
2023-01-28T04:13:00.536Z,2.40
2023-01-28T04:18:04.209Z,2.40
2023-01-28T04:23:10.290Z,2.40
2023-01-28T04:28:13.235Z,2.40
2023-01-28T04:33:16.073Z,2.40
2023-01-28T04:38:19.042Z,2.40
2023-01-28T04:43:22.071Z,2.40
2023-01-28T04:48:25.211Z,2.40
2023-01-28T04:53:28.167Z,2.40
2023-01-28T04:58:31.200Z,2.40
2023-01-28T05:03:36.255Z,2.50
2023-01-28T05:08:39.401Z,2.50
2023-01-28T05:13:42.457Z,2.50
2023-01-28T05:18:48.163Z,2.50
2023-01-28T05:23:51.158Z,2.40
2023-01-28T05:28:54.186Z,2.50
2023-01-28T05:33:57.937Z,2.50
2023-01-28T05:39:00.932Z,2.50
2023-01-28T05:44:05.067Z,2.50
2023-01-28T05:49:12.359Z,2.40
2023-01-28T05:54:15.250Z,2.40
2023-01-28T05:59:18.673Z,2.40
2023-01-28T06:04:22.027Z,2.40
2023-01-28T06:09:24.995Z,2.40
2023-01-28T06:14:27.875Z,2.30
2023-01-28T06:19:30.763Z,2.30
2023-01-28T06:24:33.911Z,2.30
2023-01-28T06:29:36.947Z,2.30
2023-01-28T06:34:40.460Z,2.30
2023-01-28T06:39:43.229Z,2.30
2023-01-28T06:44:46.228Z,2.30
2023-01-28T06:49:49.164Z,2.40
2023-01-28T06:54:53.628Z,2.30
2023-01-28T06:59:56.581Z,2.30
2023-01-28T07:04:59.629Z,2.30
2023-01-28T07:10:02.769Z,2.30
2023-01-28T07:15:06.644Z,2.40
2023-01-28T07:20:15.970Z,2.40
2023-01-28T07:25:19.287Z,2.50
2023-01-28T07:30:24.219Z,2.50
2023-01-28T07:35:27.913Z,2.50
2023-01-28T07:40:31.035Z,2.50
2023-01-28T07:45:34.435Z,2.50
2023-01-28T07:50:38.526Z,2.50
2023-01-28T07:55:41.519Z,2.60
2023-01-28T08:00:44.710Z,2.60
2023-01-28T08:05:51.746Z,2.60
2023-01-28T08:10:54.806Z,2.60
2023-01-28T08:15:57.856Z,2.70
2023-01-28T08:21:02.321Z,2.70
2023-01-28T08:26:05.258Z,2.80
2023-01-28T08:31:08.592Z,2.90
2023-01-28T08:36:12.750Z,2.90
2023-01-28T08:41:15.754Z,3.00
2023-01-28T08:46:18.587Z,3.20
2023-01-28T08:51:21.355Z,3.30
2023-01-28T08:56:24.202Z,3.40
2023-01-28T09:01:29.483Z,3.50
2023-01-28T09:06:33.066Z,3.70
2023-01-28T09:11:36.041Z,4.00
2023-01-28T09:16:38.937Z,4.10
2023-01-28T09:21:42.103Z,4.20
2023-01-28T09:26:45.562Z,4.30
2023-01-28T09:31:48.623Z,4.30
2023-01-28T09:36:51.503Z,4.30
2023-01-28T09:42:37.132Z,4.40
2023-01-28T09:47:53.964Z,4.50
2023-01-28T09:53:20.909Z,4.60
2023-01-28T09:58:24.134Z,4.70
2023-01-28T10:03:58.325Z,4.80
2023-01-28T10:09:33.215Z,5.00
2023-01-28T10:14:50.897Z,5.00
2023-01-28T10:20:17.958Z,5.00
2023-01-28T10:25:25.889Z,5.00
2023-01-28T10:30:35.212Z,5.00
2023-01-28T10:35:42.701Z,5.10
2023-01-28T10:40:48.329Z,5.20
2023-01-28T10:46:32.602Z,5.30
2023-01-28T10:51:39.005Z,5.40
2023-01-28T10:56:44.047Z,5.50
2023-01-28T11:01:56.560Z,5.50
2023-01-28T11:07:02.340Z,5.60
2023-01-28T11:12:26.051Z,5.60
2023-01-28T11:17:40.220Z,5.70
2023-01-28T11:22:45.139Z,5.80
2023-01-28T11:27:51.537Z,6.00
2023-01-28T11:33:21.487Z,6.10
2023-01-28T11:38:26.161Z,6.20
2023-01-28T11:43:31.599Z,6.50
2023-01-28T11:48:49.705Z,6.70
2023-01-28T11:54:35.521Z,6.70
2023-01-28T11:59:53.437Z,6.90
2023-01-28T12:05:11.799Z,6.90
2023-01-28T12:10:49.736Z,6.80
2023-01-28T12:16:30.452Z,6.70
2023-01-28T12:22:08.528Z,6.60
2023-01-28T12:27:38.220Z,6.40
2023-01-28T12:33:26.147Z,6.30
2023-01-28T12:38:53.932Z,6.20
2023-01-28T12:44:09.636Z,6.30
2023-01-28T12:49:36.316Z,6.40
2023-01-28T12:55:05.375Z,6.40
2023-01-28T13:00:37.025Z,6.30
2023-01-28T13:05:48.487Z,6.20
2023-01-28T13:10:53.334Z,6.20
2023-01-28T13:15:56.439Z,6.20
2023-01-28T13:21:01.837Z,6.10
2023-01-28T13:26:20.062Z,6.00
2023-01-28T13:31:24.742Z,6.00
2023-01-28T13:36:39.202Z,5.90
2023-01-28T13:41:47.758Z,5.80
2023-01-28T13:46:51.010Z,5.80
2023-01-28T13:52:12.287Z,5.70
2023-01-28T13:57:39.249Z,5.60
2023-01-28T14:03:09.682Z,5.60
2023-01-28T14:08:24.456Z,5.60
2023-01-28T14:14:05.911Z,5.50
2023-01-28T14:19:14.472Z,5.50
2023-01-28T14:24:19.610Z,5.50
2023-01-28T14:29:57.637Z,5.50
2023-01-28T14:35:09.909Z,5.40
2023-01-28T14:40:17.023Z,5.30
2023-01-28T14:45:25.934Z,5.20
2023-01-28T14:50:53.794Z,5.20
2023-01-28T14:56:20.269Z,5.10
2023-01-28T15:01:29.914Z,5.00
2023-01-28T15:06:36.145Z,4.90
2023-01-28T15:11:43.507Z,4.70
2023-01-28T15:16:50.831Z,4.60
2023-01-28T15:21:58.080Z,4.50
2023-01-28T15:27:01.791Z,4.40
2023-01-28T15:32:07.270Z,4.30
2023-01-28T15:37:11.152Z,4.20
2023-01-28T15:42:29.410Z,4.10
2023-01-28T15:47:35.373Z,4.00
2023-01-28T15:52:42.305Z,4.00
2023-01-28T15:57:45.243Z,3.90
2023-01-28T16:02:51.488Z,3.80
2023-01-28T16:07:56.465Z,3.80
2023-01-28T16:13:07.376Z,3.70
2023-01-28T16:18:30.209Z,3.70
2023-01-28T16:23:33.626Z,3.60
2023-01-28T16:28:36.435Z,3.60
2023-01-28T16:33:39.417Z,3.50
2023-01-28T16:38:42.541Z,3.50
2023-01-28T16:43:45.538Z,3.50
2023-01-28T16:48:48.600Z,3.50
2023-01-28T16:53:51.945Z,3.40
2023-01-28T16:58:56.004Z,3.40
2023-01-28T17:03:59.079Z,3.40
2023-01-28T17:09:02.154Z,3.40
2023-01-28T17:14:05.103Z,3.30
2023-01-28T17:19:08.107Z,3.30
2023-01-28T17:24:10.968Z,3.30
2023-01-28T17:29:13.914Z,3.20
2023-01-28T17:34:16.768Z,3.20
2023-01-28T17:39:19.703Z,3.20
2023-01-28T17:44:22.766Z,3.20
2023-01-28T17:49:25.738Z,3.20
2023-01-28T17:54:28.858Z,3.20
2023-01-28T17:59:31.766Z,3.20
2023-01-28T18:04:39.793Z,3.20
2023-01-28T18:09:45.880Z,3.20
2023-01-28T18:14:48.996Z,3.20
2023-01-28T18:19:52.701Z,3.20
2023-01-28T18:24:55.731Z,3.20
2023-01-28T18:29:58.771Z,3.20
2023-01-28T18:35:06.711Z,3.20
2023-01-28T18:40:10.633Z,3.20
2023-01-28T18:45:13.940Z,3.20
2023-01-28T18:50:17.185Z,3.20
2023-01-28T18:55:21.560Z,3.20
2023-01-28T19:00:24.645Z,3.20
2023-01-28T19:05:33.898Z,3.20
2023-01-28T19:10:36.947Z,3.20
2023-01-28T19:15:40.259Z,3.20
2023-01-28T19:20:43.733Z,3.20
2023-01-28T19:25:46.680Z,3.10
2023-01-28T19:30:50.043Z,3.10
2023-01-28T19:36:01.076Z,3.10
2023-01-28T19:41:08.184Z,3.00
2023-01-28T19:46:16.240Z,3.00
2023-01-28T19:51:20.016Z,2.90
2023-01-28T19:56:25.389Z,2.90
2023-01-28T20:01:30.438Z,2.80
2023-01-28T20:06:35.605Z,2.80
2023-01-28T20:11:38.515Z,2.80
2023-01-28T20:16:42.089Z,2.70
2023-01-28T20:21:47.589Z,2.70
2023-01-28T20:26:50.547Z,2.80
2023-01-28T20:32:13.708Z,2.70
2023-01-28T20:37:20.060Z,2.70
2023-01-28T20:42:23.013Z,2.70
2023-01-28T20:47:25.996Z,2.70
2023-01-28T20:52:28.963Z,2.60
2023-01-28T20:57:32.207Z,2.60
2023-01-28T21:02:39.898Z,2.60
2023-01-28T21:07:43.083Z,2.60
2023-01-28T21:12:45.963Z,2.60
2023-01-28T21:17:48.839Z,2.60
2023-01-28T21:22:56.105Z,2.60
2023-01-28T21:27:59.083Z,2.60
2023-01-28T21:33:02.031Z,2.60
2023-01-28T21:38:06.227Z,2.50
2023-01-28T21:43:09.350Z,2.50
2023-01-28T21:48:12.464Z,2.60
2023-01-28T21:53:15.303Z,2.60
2023-01-28T21:58:36.616Z,2.60
2023-01-28T22:03:39.671Z,2.60
2023-01-28T22:08:42.596Z,2.60
2023-01-28T22:13:45.687Z,2.60
2023-01-28T22:18:50.275Z,2.50
2023-01-28T22:23:53.957Z,2.40
2023-01-28T22:28:56.918Z,2.30
2023-01-28T22:33:59.951Z,2.30
2023-01-28T22:39:05.239Z,2.20
2023-01-28T22:44:08.528Z,2.20
2023-01-28T22:49:12.600Z,2.10
2023-01-28T22:54:15.716Z,2.10
2023-01-28T22:59:18.449Z,2.00
2023-01-28T23:04:21.408Z,1.90
2023-01-28T23:09:24.416Z,1.90
2023-01-28T23:14:45.638Z,1.90
2023-01-28T23:20:06.949Z,2.00
2023-01-28T23:25:10.981Z,2.00
2023-01-28T23:30:15.233Z,1.90
2023-01-28T23:35:19.373Z,1.90
2023-01-28T23:40:24.720Z,1.90
2023-01-28T23:45:27.719Z,1.90
2023-01-28T23:50:31.089Z,1.90
2023-01-28T23:55:33.903Z,1.80
